Airfield :
LOGIN :

Register | Disclaimer

   EN    FR    IT 

 










Legend :    VFR   Marginal VFR   IFR   Intensive IFR   Very Intensive IFR
Visi :
Ceiling :
>= 8 km
>= 3000ft
5 to 8 km
1000 to 3000 ft
1500m to 5 km
500 to 1000 ft
800 to 1500m
200 to 500 ft
< 800m
< 200 ft
Symbols :   Thunderstorms  Fog  Heavy snow  Heavy precipitations  Wind > 20 kt
SIGMETs :     Misc.  Thunderstorms  Icing  Turbulence  Mountain Waves  Volcanic Ashes







- Airport Elevation : 37 ft


EHVL - Vlieland Heliport

CURRENT METAR :
  • 142225Z AUTO 25014KT 9999 SCT041 BKN045 OVC056 19/15 Q1016 BLU

EXPIRED METARs :
  • 142155Z AUTO 24014KT 9999 SCT053 OVC130 18/15 Q1015 BLU
  • 142125Z AUTO 25014KT 9999 FEW043 OVC050 18/15 Q1016 BLU
  • 142055Z AUTO 26015KT 9999 FEW016 OVC051 18/15 Q1016 BLU
  • 142026Z AUTO 26015KT 9999 FEW013 BKN051 BKN110 18/15 Q1016 BLU
  • 142025Z AUTO 26014KT 9999 FEW013 SCT016 BKN050 18/15 Q1016 WHT
  • 142012Z AUTO 25014KT 9999 FEW014 SCT017 BKN052 18/16 Q1015 WHT
  • 142010Z AUTO 25014KT 9999 FEW012 SCT015 OVC051 18/15 Q1016 WHT
  • 142003Z AUTO 25014KT 9999 FEW011 SCT015 BKN051 18/16 Q1016 WHT
  • 141959Z AUTO 25015KT 9999 SCT011 SCT017 OVC120 18/16 Q1016 GRN
  • 141955Z AUTO 25015KT 9999 FEW011 SCT019 OVC120 18/16 Q1016 WHT
  • 141948Z AUTO 25015KT 9999 FEW011 SCT013 BKN018 18/16 Q1016 GRN

Expired Forecast.
No reported NOTAMs for that airfield.



MET'MAP, your aeronautical weather chart ! - Copyright ORBIFLY December 2007 - Disclaimer

ORBIFLY MET'MAP TEAM :

Programming & Development : Alexandra Zaïnal
Concept & Development : Baudouin d'Aumeries
Co-Development & Prog : Marc-Olivier Méhu
Technical & hardware support : Manuel Goepfert

Contact : metmap@orbifly.com




SOURCES & CREDITS :

   NOAA